sensor_id;sensor_type;location;lat;lon;timestamp;temperature;humidity
50556;DHT22;36508;52.512;13.450;2023-03-14T00:01:58;13.00;99.90
50556;DHT22;36508;52.512;13.450;2023-03-14T00:04:24;13.00;99.90
50556;DHT22;36508;52.512;13.450;2023-03-14T00:06:49;13.00;99.90
50556;DHT22;36508;52.512;13.450;2023-03-14T00:09:16;12.90;99.90
50556;DHT22;36508;52.512;13.450;2023-03-14T00:11:42;12.80;99.90
50556;DHT22;36508;52.512;13.450;2023-03-14T00:14:07;12.80;99.90
50556;DHT22;36508;52.512;13.450;2023-03-14T00:16:33;12.80;99.90
50556;DHT22;36508;52.512;13.450;2023-03-14T00:18:59;12.70;99.90
50556;DHT22;36508;52.512;13.450;2023-03-14T00:21:25;12.70;99.90
50556;DHT22;36508;52.512;13.450;2023-03-14T00:23:51;12.60;99.90
50556;DHT22;36508;52.512;13.450;2023-03-14T00:26:19;12.60;99.90
50556;DHT22;36508;52.512;13.450;2023-03-14T00:28:46;12.60;99.90
50556;DHT22;36508;52.512;13.450;2023-03-14T00:31:15;12.60;99.90
50556;DHT22;36508;52.512;13.450;2023-03-14T00:33:41;12.60;99.90
50556;DHT22;36508;52.512;13.450;2023-03-14T00:36:09;12.50;99.90
50556;DHT22;36508;52.512;13.450;2023-03-14T00:38:36;12.50;99.90
50556;DHT22;36508;52.512;13.450;2023-03-14T00:41:07;12.40;99.90
50556;DHT22;36508;52.512;13.450;2023-03-14T00:43:33;12.40;99.90
50556;DHT22;36508;52.512;13.450;2023-03-14T00:45:59;12.40;99.90
50556;DHT22;36508;52.512;13.450;2023-03-14T00:48:25;12.40;99.90
50556;DHT22;36508;52.512;13.450;2023-03-14T00:50:51;12.30;99.90
50556;DHT22;36508;52.512;13.450;2023-03-14T00:53:16;12.30;99.90
50556;DHT22;36508;52.512;13.450;2023-03-14T00:55:43;12.30;99.90
50556;DHT22;36508;52.512;13.450;2023-03-14T00:58:13;12.20;99.90
50556;DHT22;36508;52.512;13.450;2023-03-14T01:00:40;12.20;99.90
50556;DHT22;36508;52.512;13.450;2023-03-14T01:03:06;12.20;99.90
50556;DHT22;36508;52.512;13.450;2023-03-14T01:05:33;12.20;99.90
50556;DHT22;36508;52.512;13.450;2023-03-14T01:07:58;12.20;99.90
50556;DHT22;36508;52.512;13.450;2023-03-14T01:10:24;12.20;99.90
50556;DHT22;36508;52.512;13.450;2023-03-14T01:12:50;12.10;99.90
50556;DHT22;36508;52.512;13.450;2023-03-14T01:15:15;12.10;99.90
50556;DHT22;36508;52.512;13.450;2023-03-14T01:17:41;12.10;99.90
50556;DHT22;36508;52.512;13.450;2023-03-14T01:20:09;12.10;99.90
50556;DHT22;36508;52.512;13.450;2023-03-14T01:22:36;12.00;99.90
50556;DHT22;36508;52.512;13.450;2023-03-14T01:25:04;12.00;99.90
50556;DHT22;36508;52.512;13.450;2023-03-14T01:27:30;12.00;99.90
50556;DHT22;36508;52.512;13.450;2023-03-14T01:29:55;12.00;99.90
50556;DHT22;36508;52.512;13.450;2023-03-14T01:32:21;12.00;99.90
50556;DHT22;36508;52.512;13.450;2023-03-14T01:34:46;12.00;99.90
50556;DHT22;36508;52.512;13.450;2023-03-14T01:37:12;12.00;99.90
50556;DHT22;36508;52.512;13.450;2023-03-14T01:39:38;11.90;99.90
50556;DHT22;36508;52.512;13.450;2023-03-14T01:42:04;12.00;99.90
50556;DHT22;36508;52.512;13.450;2023-03-14T01:44:56;12.00;99.90
50556;DHT22;36508;52.512;13.450;2023-03-14T01:47:23;12.00;99.90
50556;DHT22;36508;52.512;13.450;2023-03-14T01:50:12;12.10;99.90
50556;DHT22;36508;52.512;13.450;2023-03-14T01:52:46;12.10;99.90
50556;DHT22;36508;52.512;13.450;2023-03-14T01:55:15;12.20;99.90
50556;DHT22;36508;52.512;13.450;2023-03-14T01:57:54;12.10;99.90
50556;DHT22;36508;52.512;13.450;2023-03-14T02:00:23;12.10;99.90
50556;DHT22;36508;52.512;13.450;2023-03-14T02:02:53;12.20;99.90
50556;DHT22;36508;52.512;13.450;2023-03-14T02:05:28;12.10;99.90
50556;DHT22;36508;52.512;13.450;2023-03-14T02:07:56;12.10;99.90
50556;DHT22;36508;52.512;13.450;2023-03-14T02:10:26;12.10;99.90
50556;DHT22;36508;52.512;13.450;2023-03-14T02:12:54;12.10;99.90
50556;DHT22;36508;52.512;13.450;2023-03-14T02:15:21;12.00;99.90
50556;DHT22;36508;52.512;13.450;2023-03-14T02:17:47;12.00;99.90
50556;DHT22;36508;52.512;13.450;2023-03-14T02:22:40;11.90;99.90
50556;DHT22;36508;52.512;13.450;2023-03-14T02:25:22;11.90;99.90
50556;DHT22;36508;52.512;13.450;2023-03-14T02:27:50;11.90;99.90
50556;DHT22;36508;52.512;13.450;2023-03-14T02:30:23;11.90;99.90
50556;DHT22;36508;52.512;13.450;2023-03-14T02:32:54;11.90;99.90
50556;DHT22;36508;52.512;13.450;2023-03-14T02:35:26;11.90;99.90
50556;DHT22;36508;52.512;13.450;2023-03-14T02:40:41;11.90;99.90
50556;DHT22;36508;52.512;13.450;2023-03-14T02:43:06;12.00;99.90
50556;DHT22;36508;52.512;13.450;2023-03-14T02:45:37;12.00;99.90
50556;DHT22;36508;52.512;13.450;2023-03-14T02:48:19;12.00;99.90
50556;DHT22;36508;52.512;13.450;2023-03-14T02:50:48;11.90;99.90
50556;DHT22;36508;52.512;13.450;2023-03-14T02:53:17;11.90;99.90
50556;DHT22;36508;52.512;13.450;2023-03-14T02:55:50;11.90;99.90
50556;DHT22;36508;52.512;13.450;2023-03-14T02:58:17;11.90;99.90
50556;DHT22;36508;52.512;13.450;2023-03-14T03:00:42;11.90;99.90
50556;DHT22;36508;52.512;13.450;2023-03-14T03:03:08;11.90;99.90
50556;DHT22;36508;52.512;13.450;2023-03-14T03:05:34;11.90;99.90
50556;DHT22;36508;52.512;13.450;2023-03-14T03:07:59;11.90;99.90
50556;DHT22;36508;52.512;13.450;2023-03-14T03:10:26;11.90;99.90
50556;DHT22;36508;52.512;13.450;2023-03-14T03:12:51;11.80;99.90
50556;DHT22;36508;52.512;13.450;2023-03-14T03:15:17;11.90;99.90
50556;DHT22;36508;52.512;13.450;2023-03-14T03:17:43;11.80;99.90
50556;DHT22;36508;52.512;13.450;2023-03-14T03:20:09;11.80;99.90
50556;DHT22;36508;52.512;13.450;2023-03-14T03:22:38;11.80;99.90
50556;DHT22;36508;52.512;13.450;2023-03-14T03:25:05;11.70;99.90
50556;DHT22;36508;52.512;13.450;2023-03-14T03:27:32;11.70;99.90
50556;DHT22;36508;52.512;13.450;2023-03-14T03:29:58;11.70;99.90
50556;DHT22;36508;52.512;13.450;2023-03-14T03:32:24;11.70;99.90
50556;DHT22;36508;52.512;13.450;2023-03-14T03:34:50;11.70;99.90
50556;DHT22;36508;52.512;13.450;2023-03-14T03:37:16;11.60;99.90
50556;DHT22;36508;52.512;13.450;2023-03-14T03:39:42;11.70;99.90
50556;DHT22;36508;52.512;13.450;2023-03-14T03:42:07;11.60;99.90
50556;DHT22;36508;52.512;13.450;2023-03-14T03:44:33;11.60;99.90
50556;DHT22;36508;52.512;13.450;2023-03-14T03:46:59;11.60;99.90
50556;DHT22;36508;52.512;13.450;2023-03-14T03:49:29;11.50;99.90
50556;DHT22;36508;52.512;13.450;2023-03-14T03:51:54;11.50;99.90
50556;DHT22;36508;52.512;13.450;2023-03-14T03:54:20;11.50;99.90
50556;DHT22;36508;52.512;13.450;2023-03-14T03:56:45;11.50;99.90
50556;DHT22;36508;52.512;13.450;2023-03-14T03:59:11;11.40;99.90
50556;DHT22;36508;52.512;13.450;2023-03-14T04:01:37;11.40;99.90
50556;DHT22;36508;52.512;13.450;2023-03-14T04:04:02;11.40;99.90
50556;DHT22;36508;52.512;13.450;2023-03-14T04:06:28;11.40;99.90
50556;DHT22;36508;52.512;13.450;2023-03-14T04:08:54;11.40;99.90
50556;DHT22;36508;52.512;13.450;2023-03-14T04:11:20;11.50;99.90
50556;DHT22;36508;52.512;13.450;2023-03-14T04:13:45;11.50;99.90
50556;DHT22;36508;52.512;13.450;2023-03-14T04:16:21;11.40;99.90
50556;DHT22;36508;52.512;13.450;2023-03-14T04:18:47;11.40;99.90
50556;DHT22;36508;52.512;13.450;2023-03-14T04:21:13;11.40;99.90
50556;DHT22;36508;52.512;13.450;2023-03-14T04:23:39;11.40;99.90
50556;DHT22;36508;52.512;13.450;2023-03-14T04:26:04;11.40;99.90
50556;DHT22;36508;52.512;13.450;2023-03-14T04:28:30;11.50;99.90
50556;DHT22;36508;52.512;13.450;2023-03-14T04:30:56;11.50;99.90
50556;DHT22;36508;52.512;13.450;2023-03-14T04:33:22;11.50;99.90
50556;DHT22;36508;52.512;13.450;2023-03-14T04:35:48;11.50;99.90
50556;DHT22;36508;52.512;13.450;2023-03-14T04:38:16;11.40;99.90
50556;DHT22;36508;52.512;13.450;2023-03-14T04:40:41;11.40;99.90
50556;DHT22;36508;52.512;13.450;2023-03-14T04:43:08;11.50;99.90
50556;DHT22;36508;52.512;13.450;2023-03-14T04:45:35;11.40;99.90
50556;DHT22;36508;52.512;13.450;2023-03-14T04:48:01;11.40;99.90
50556;DHT22;36508;52.512;13.450;2023-03-14T04:50:26;11.40;99.90
50556;DHT22;36508;52.512;13.450;2023-03-14T04:52:52;11.40;99.90
50556;DHT22;36508;52.512;13.450;2023-03-14T04:55:17;11.40;99.90
50556;DHT22;36508;52.512;13.450;2023-03-14T04:57:45;11.40;99.90
50556;DHT22;36508;52.512;13.450;2023-03-14T05:00:11;11.40;99.90
50556;DHT22;36508;52.512;13.450;2023-03-14T05:02:37;11.40;99.90
50556;DHT22;36508;52.512;13.450;2023-03-14T05:05:03;11.40;99.90
50556;DHT22;36508;52.512;13.450;2023-03-14T05:07:28;11.40;99.90
50556;DHT22;36508;52.512;13.450;2023-03-14T05:09:54;11.40;99.90
50556;DHT22;36508;52.512;13.450;2023-03-14T05:12:20;11.40;99.90
50556;DHT22;36508;52.512;13.450;2023-03-14T05:14:46;11.40;99.90
50556;DHT22;36508;52.512;13.450;2023-03-14T05:17:12;11.40;99.90
50556;DHT22;36508;52.512;13.450;2023-03-14T05:19:40;11.40;99.90
50556;DHT22;36508;52.512;13.450;2023-03-14T05:22:06;11.40;99.90
50556;DHT22;36508;52.512;13.450;2023-03-14T05:24:32;11.40;99.90
50556;DHT22;36508;52.512;13.450;2023-03-14T05:26:57;11.40;99.90
50556;DHT22;36508;52.512;13.450;2023-03-14T05:29:23;11.40;99.90
50556;DHT22;36508;52.512;13.450;2023-03-14T05:31:49;11.40;99.90
50556;DHT22;36508;52.512;13.450;2023-03-14T05:34:14;11.40;99.90
50556;DHT22;36508;52.512;13.450;2023-03-14T05:36:40;11.40;99.90
50556;DHT22;36508;52.512;13.450;2023-03-14T05:39:05;11.40;99.90
50556;DHT22;36508;52.512;13.450;2023-03-14T05:41:31;11.40;99.90
50556;DHT22;36508;52.512;13.450;2023-03-14T05:43:57;11.40;99.90
50556;DHT22;36508;52.512;13.450;2023-03-14T05:46:22;11.50;99.90
50556;DHT22;36508;52.512;13.450;2023-03-14T05:48:48;11.50;99.90
50556;DHT22;36508;52.512;13.450;2023-03-14T05:51:14;11.40;99.90
50556;DHT22;36508;52.512;13.450;2023-03-14T05:53:39;11.50;99.90
50556;DHT22;36508;52.512;13.450;2023-03-14T05:56:05;11.40;99.90
50556;DHT22;36508;52.512;13.450;2023-03-14T05:58:31;11.50;99.90
50556;DHT22;36508;52.512;13.450;2023-03-14T06:00:57;11.50;99.90
50556;DHT22;36508;52.512;13.450;2023-03-14T06:03:22;11.50;99.90
50556;DHT22;36508;52.512;13.450;2023-03-14T06:05:51;11.50;99.90
50556;DHT22;36508;52.512;13.450;2023-03-14T06:08:17;11.50;99.90
50556;DHT22;36508;52.512;13.450;2023-03-14T06:10:43;11.50;99.90
50556;DHT22;36508;52.512;13.450;2023-03-14T06:13:08;11.50;99.90
50556;DHT22;36508;52.512;13.450;2023-03-14T06:15:34;11.50;99.90
50556;DHT22;36508;52.512;13.450;2023-03-14T06:18:01;11.50;99.90
50556;DHT22;36508;52.512;13.450;2023-03-14T06:20:27;11.50;99.90
50556;DHT22;36508;52.512;13.450;2023-03-14T06:22:52;11.50;99.90
50556;DHT22;36508;52.512;13.450;2023-03-14T06:25:18;11.60;99.90
50556;DHT22;36508;52.512;13.450;2023-03-14T06:27:43;11.60;99.90
50556;DHT22;36508;52.512;13.450;2023-03-14T06:30:10;11.60;99.90
50556;DHT22;36508;52.512;13.450;2023-03-14T06:32:35;11.60;99.90
50556;DHT22;36508;52.512;13.450;2023-03-14T06:35:01;11.60;99.90
50556;DHT22;36508;52.512;13.450;2023-03-14T06:37:28;11.70;99.90
50556;DHT22;36508;52.512;13.450;2023-03-14T06:39:55;11.60;99.90
50556;DHT22;36508;52.512;13.450;2023-03-14T06:42:20;11.60;99.90
50556;DHT22;36508;52.512;13.450;2023-03-14T06:44:46;11.70;99.90
50556;DHT22;36508;52.512;13.450;2023-03-14T06:47:12;11.70;99.90
50556;DHT22;36508;52.512;13.450;2023-03-14T06:49:37;11.80;99.90
50556;DHT22;36508;52.512;13.450;2023-03-14T06:52:03;11.80;99.90
50556;DHT22;36508;52.512;13.450;2023-03-14T06:54:29;11.80;99.90
50556;DHT22;36508;52.512;13.450;2023-03-14T06:56:54;11.80;99.90
50556;DHT22;36508;52.512;13.450;2023-03-14T06:59:20;11.90;99.90
50556;DHT22;36508;52.512;13.450;2023-03-14T07:01:48;11.90;99.90
50556;DHT22;36508;52.512;13.450;2023-03-14T07:04:16;11.90;99.90
50556;DHT22;36508;52.512;13.450;2023-03-14T07:06:41;12.00;99.90
50556;DHT22;36508;52.512;13.450;2023-03-14T07:09:10;12.00;99.90
50556;DHT22;36508;52.512;13.450;2023-03-14T07:11:36;12.10;99.90
50556;DHT22;36508;52.512;13.450;2023-03-14T07:14:02;12.10;99.90
50556;DHT22;36508;52.512;13.450;2023-03-14T07:16:27;12.20;99.90
50556;DHT22;36508;52.512;13.450;2023-03-14T07:18:56;12.10;99.90
50556;DHT22;36508;52.512;13.450;2023-03-14T07:21:22;12.10;99.90
50556;DHT22;36508;52.512;13.450;2023-03-14T07:23:48;12.10;99.90
50556;DHT22;36508;52.512;13.450;2023-03-14T07:26:13;12.00;99.90
50556;DHT22;36508;52.512;13.450;2023-03-14T07:28:39;12.00;99.90
50556;DHT22;36508;52.512;13.450;2023-03-14T07:31:05;12.10;99.90
50556;DHT22;36508;52.512;13.450;2023-03-14T07:33:30;12.10;99.90
50556;DHT22;36508;52.512;13.450;2023-03-14T07:35:56;12.20;99.90
50556;DHT22;36508;52.512;13.450;2023-03-14T07:38:21;12.10;99.90
50556;DHT22;36508;52.512;13.450;2023-03-14T07:40:47;12.10;99.90
50556;DHT22;36508;52.512;13.450;2023-03-14T07:43:13;12.10;99.90
50556;DHT22;36508;52.512;13.450;2023-03-14T07:45:38;12.10;99.90
50556;DHT22;36508;52.512;13.450;2023-03-14T07:48:04;12.10;99.90
50556;DHT22;36508;52.512;13.450;2023-03-14T07:50:30;12.00;99.90
50556;DHT22;36508;52.512;13.450;2023-03-14T07:52:55;12.00;99.90
50556;DHT22;36508;52.512;13.450;2023-03-14T07:55:21;12.00;99.90
50556;DHT22;36508;52.512;13.450;2023-03-14T07:57:47;11.90;99.90
50556;DHT22;36508;52.512;13.450;2023-03-14T08:00:13;11.90;99.90
50556;DHT22;36508;52.512;13.450;2023-03-14T08:02:40;12.00;99.90
50556;DHT22;36508;52.512;13.450;2023-03-14T08:05:06;12.10;99.90
50556;DHT22;36508;52.512;13.450;2023-03-14T08:07:32;12.20;99.90
50556;DHT22;36508;52.512;13.450;2023-03-14T08:09:57;12.30;99.90
50556;DHT22;36508;52.512;13.450;2023-03-14T08:12:23;12.30;99.90
50556;DHT22;36508;52.512;13.450;2023-03-14T08:14:48;12.40;99.90
50556;DHT22;36508;52.512;13.450;2023-03-14T08:17:14;12.50;99.90
50556;DHT22;36508;52.512;13.450;2023-03-14T08:19:41;12.50;99.90
50556;DHT22;36508;52.512;13.450;2023-03-14T08:22:07;12.60;99.90
50556;DHT22;36508;52.512;13.450;2023-03-14T08:24:33;12.70;99.90
50556;DHT22;36508;52.512;13.450;2023-03-14T08:26:58;12.80;99.90
50556;DHT22;36508;52.512;13.450;2023-03-14T08:29:24;12.80;99.90
50556;DHT22;36508;52.512;13.450;2023-03-14T08:31:49;12.90;99.90
50556;DHT22;36508;52.512;13.450;2023-03-14T08:34:15;12.90;99.90
50556;DHT22;36508;52.512;13.450;2023-03-14T08:36:41;12.80;99.90
50556;DHT22;36508;52.512;13.450;2023-03-14T08:39:07;13.00;99.90
50556;DHT22;36508;52.512;13.450;2023-03-14T08:41:33;13.00;99.90
50556;DHT22;36508;52.512;13.450;2023-03-14T08:44:08;12.90;99.90
50556;DHT22;36508;52.512;13.450;2023-03-14T08:46:34;12.90;99.90
50556;DHT22;36508;52.512;13.450;2023-03-14T08:49:00;13.00;99.90
50556;DHT22;36508;52.512;13.450;2023-03-14T08:51:26;13.00;99.90
50556;DHT22;36508;52.512;13.450;2023-03-14T08:53:51;12.90;99.90
50556;DHT22;36508;52.512;13.450;2023-03-14T08:56:17;13.00;99.90
50556;DHT22;36508;52.512;13.450;2023-03-14T08:58:42;13.00;99.90
50556;DHT22;36508;52.512;13.450;2023-03-14T09:01:10;13.00;99.90
50556;DHT22;36508;52.512;13.450;2023-03-14T09:03:36;13.00;99.90
50556;DHT22;36508;52.512;13.450;2023-03-14T09:06:04;12.90;99.90
50556;DHT22;36508;52.512;13.450;2023-03-14T09:08:33;12.90;99.90
50556;DHT22;36508;52.512;13.450;2023-03-14T09:10:59;12.90;99.90
50556;DHT22;36508;52.512;13.450;2023-03-14T09:13:24;12.90;99.90
50556;DHT22;36508;52.512;13.450;2023-03-14T09:15:51;13.00;99.90
50556;DHT22;36508;52.512;13.450;2023-03-14T09:18:17;13.20;99.90
50556;DHT22;36508;52.512;13.450;2023-03-14T09:20:42;13.50;99.90
50556;DHT22;36508;52.512;13.450;2023-03-14T09:23:11;13.70;99.90
50556;DHT22;36508;52.512;13.450;2023-03-14T09:25:37;13.70;99.90
50556;DHT22;36508;52.512;13.450;2023-03-14T09:28:03;13.50;99.90
50556;DHT22;36508;52.512;13.450;2023-03-14T09:30:29;13.50;99.90
50556;DHT22;36508;52.512;13.450;2023-03-14T09:32:55;13.50;99.90
50556;DHT22;36508;52.512;13.450;2023-03-14T09:35:20;13.50;99.90
50556;DHT22;36508;52.512;13.450;2023-03-14T09:37:46;13.50;99.90
50556;DHT22;36508;52.512;13.450;2023-03-14T09:40:16;13.60;99.90
50556;DHT22;36508;52.512;13.450;2023-03-14T09:42:42;13.60;99.90
50556;DHT22;36508;52.512;13.450;2023-03-14T09:45:17;13.70;99.90
50556;DHT22;36508;52.512;13.450;2023-03-14T09:47:44;14.00;99.90
50556;DHT22;36508;52.512;13.450;2023-03-14T09:50:14;14.10;99.90
50556;DHT22;36508;52.512;13.450;2023-03-14T09:52:44;14.10;99.90
50556;DHT22;36508;52.512;13.450;2023-03-14T09:55:17;14.00;99.90
50556;DHT22;36508;52.512;13.450;2023-03-14T09:57:45;13.90;99.90
50556;DHT22;36508;52.512;13.450;2023-03-14T10:00:15;13.90;99.90
50556;DHT22;36508;52.512;13.450;2023-03-14T10:02:53;13.80;99.90
50556;DHT22;36508;52.512;13.450;2023-03-14T10:05:22;13.80;99.90
50556;DHT22;36508;52.512;13.450;2023-03-14T10:07:47;13.70;99.90
50556;DHT22;36508;52.512;13.450;2023-03-14T10:10:21;13.70;99.90
50556;DHT22;36508;52.512;13.450;2023-03-14T10:13:10;13.80;99.90
50556;DHT22;36508;52.512;13.450;2023-03-14T10:15:38;13.90;99.90
50556;DHT22;36508;52.512;13.450;2023-03-14T10:18:09;14.00;99.90
50556;DHT22;36508;52.512;13.450;2023-03-14T10:20:43;14.00;99.90
50556;DHT22;36508;52.512;13.450;2023-03-14T10:25:40;13.80;99.90
50556;DHT22;36508;52.512;13.450;2023-03-14T10:28:31;14.00;99.90
50556;DHT22;36508;52.512;13.450;2023-03-14T10:30:58;13.90;99.90
50556;DHT22;36508;52.512;13.450;2023-03-14T10:33:24;13.90;99.90
50556;DHT22;36508;52.512;13.450;2023-03-14T10:35:55;13.80;99.90
50556;DHT22;36508;52.512;13.450;2023-03-14T10:38:23;13.80;99.90
50556;DHT22;36508;52.512;13.450;2023-03-14T10:40:52;13.80;99.90
50556;DHT22;36508;52.512;13.450;2023-03-14T10:43:22;13.80;99.90
50556;DHT22;36508;52.512;13.450;2023-03-14T10:46:07;13.80;99.90
50556;DHT22;36508;52.512;13.450;2023-03-14T10:48:38;13.70;99.90
50556;DHT22;36508;52.512;13.450;2023-03-14T10:51:07;13.80;99.90
50556;DHT22;36508;52.512;13.450;2023-03-14T10:53:58;13.80;99.90
50556;DHT22;36508;52.512;13.450;2023-03-14T10:56:26;13.80;99.90
50556;DHT22;36508;52.512;13.450;2023-03-14T10:58:53;13.70;99.90
50556;DHT22;36508;52.512;13.450;2023-03-14T11:07:20;13.80;99.90
50556;DHT22;36508;52.512;13.450;2023-03-14T11:09:54;13.90;99.90
50556;DHT22;36508;52.512;13.450;2023-03-14T11:17:58;13.90;99.90
50556;DHT22;36508;52.512;13.450;2023-03-14T11:23:23;13.90;99.90
50556;DHT22;36508;52.512;13.450;2023-03-14T11:29:12;13.90;99.90
50556;DHT22;36508;52.512;13.450;2023-03-14T11:31:44;13.80;99.90
50556;DHT22;36508;52.512;13.450;2023-03-14T11:34:13;13.80;99.90
50556;DHT22;36508;52.512;13.450;2023-03-14T11:37:05;13.90;99.90
50556;DHT22;36508;52.512;13.450;2023-03-14T11:39:40;14.00;99.90
50556;DHT22;36508;52.512;13.450;2023-03-14T11:42:12;14.00;99.90
50556;DHT22;36508;52.512;13.450;2023-03-14T11:44:41;14.00;99.90
50556;DHT22;36508;52.512;13.450;2023-03-14T11:47:29;13.90;99.90
50556;DHT22;36508;52.512;13.450;2023-03-14T11:52:44;13.90;99.90
50556;DHT22;36508;52.512;13.450;2023-03-14T11:55:21;13.80;99.90
50556;DHT22;36508;52.512;13.450;2023-03-14T11:57:51;13.80;99.90
50556;DHT22;36508;52.512;13.450;2023-03-14T12:00:24;14.00;99.90
50556;DHT22;36508;52.512;13.450;2023-03-14T12:03:28;14.10;99.90
50556;DHT22;36508;52.512;13.450;2023-03-14T12:05:59;14.10;99.90
50556;DHT22;36508;52.512;13.450;2023-03-14T12:08:49;14.00;99.90
50556;DHT22;36508;52.512;13.450;2023-03-14T12:11:42;14.00;99.90
50556;DHT22;36508;52.512;13.450;2023-03-14T12:14:25;14.00;99.90
50556;DHT22;36508;52.512;13.450;2023-03-14T12:17:04;14.10;99.90
50556;DHT22;36508;52.512;13.450;2023-03-14T12:19:32;14.40;99.90
50556;DHT22;36508;52.512;13.450;2023-03-14T12:22:26;14.50;99.90
50556;DHT22;36508;52.512;13.450;2023-03-14T12:25:26;14.50;99.90
50556;DHT22;36508;52.512;13.450;2023-03-14T12:30:36;14.10;99.90
50556;DHT22;36508;52.512;13.450;2023-03-14T12:38:23;14.20;99.90
50556;DHT22;36508;52.512;13.450;2023-03-14T12:41:25;14.20;99.90
50556;DHT22;36508;52.512;13.450;2023-03-14T12:43:49;14.20;99.90
50556;DHT22;36508;52.512;13.450;2023-03-14T12:51:38;14.20;99.90
50556;DHT22;36508;52.512;13.450;2023-03-14T12:54:26;14.50;99.90
50556;DHT22;36508;52.512;13.450;2023-03-14T12:57:22;14.60;99.90
50556;DHT22;36508;52.512;13.450;2023-03-14T12:59:59;15.20;99.90
50556;DHT22;36508;52.512;13.450;2023-03-14T13:05:16;15.50;99.90
50556;DHT22;36508;52.512;13.450;2023-03-14T13:12:50;14.30;99.90
50556;DHT22;36508;52.512;13.450;2023-03-14T13:17:49;13.70;99.90
50556;DHT22;36508;52.512;13.450;2023-03-14T13:20:26;13.50;99.90
50556;DHT22;36508;52.512;13.450;2023-03-14T13:22:53;13.20;99.90
50556;DHT22;36508;52.512;13.450;2023-03-14T13:25:19;12.90;99.90
50556;DHT22;36508;52.512;13.450;2023-03-14T13:27:47;12.50;99.90
50556;DHT22;36508;52.512;13.450;2023-03-14T13:30:22;12.10;99.90
50556;DHT22;36508;52.512;13.450;2023-03-14T13:32:49;12.00;99.90
50556;DHT22;36508;52.512;13.450;2023-03-14T13:35:29;12.30;99.90
50556;DHT22;36508;52.512;13.450;2023-03-14T13:38:03;13.70;99.90
50556;DHT22;36508;52.512;13.450;2023-03-14T13:40:32;15.40;99.90
50556;DHT22;36508;52.512;13.450;2023-03-14T13:43:10;16.60;99.90
50556;DHT22;36508;52.512;13.450;2023-03-14T13:45:53;18.40;99.90
50556;DHT22;36508;52.512;13.450;2023-03-14T13:48:21;19.80;99.90
50556;DHT22;36508;52.512;13.450;2023-03-14T13:51:01;21.80;99.90
50556;DHT22;36508;52.512;13.450;2023-03-14T13:53:27;23.60;99.90
50556;DHT22;36508;52.512;13.450;2023-03-14T13:55:53;23.70;99.90
50556;DHT22;36508;52.512;13.450;2023-03-14T13:58:27;23.50;99.90
50556;DHT22;36508;52.512;13.450;2023-03-14T14:01:15;23.20;99.90
50556;DHT22;36508;52.512;13.450;2023-03-14T14:03:44;23.00;99.90
50556;DHT22;36508;52.512;13.450;2023-03-14T14:06:34;22.30;99.90
50556;DHT22;36508;52.512;13.450;2023-03-14T14:09:12;19.90;99.90
50556;DHT22;36508;52.512;13.450;2023-03-14T14:11:48;19.20;99.90
50556;DHT22;36508;52.512;13.450;2023-03-14T14:14:20;19.90;99.90
50556;DHT22;36508;52.512;13.450;2023-03-14T14:16:49;20.20;99.90
50556;DHT22;36508;52.512;13.450;2023-03-14T14:19:16;19.00;99.90
50556;DHT22;36508;52.512;13.450;2023-03-14T14:21:43;17.60;99.90
50556;DHT22;36508;52.512;13.450;2023-03-14T14:24:13;17.60;99.90
50556;DHT22;36508;52.512;13.450;2023-03-14T14:27:07;18.10;99.90
50556;DHT22;36508;52.512;13.450;2023-03-14T14:29:32;18.80;99.90
50556;DHT22;36508;52.512;13.450;2023-03-14T14:34:44;18.60;99.90
50556;DHT22;36508;52.512;13.450;2023-03-14T14:37:27;17.50;99.90
50556;DHT22;36508;52.512;13.450;2023-03-14T14:39:59;16.30;99.90
50556;DHT22;36508;52.512;13.450;2023-03-14T14:42:28;15.80;99.90
50556;DHT22;36508;52.512;13.450;2023-03-14T14:44:56;15.50;99.90
50556;DHT22;36508;52.512;13.450;2023-03-14T14:47:24;15.80;99.90
50556;DHT22;36508;52.512;13.450;2023-03-14T14:49:52;16.30;99.90
50556;DHT22;36508;52.512;13.450;2023-03-14T14:52:34;15.90;99.90
50556;DHT22;36508;52.512;13.450;2023-03-14T14:55:01;15.70;99.90
50556;DHT22;36508;52.512;13.450;2023-03-14T14:57:38;15.60;99.90
50556;DHT22;36508;52.512;13.450;2023-03-14T15:00:17;15.20;99.90
50556;DHT22;36508;52.512;13.450;2023-03-14T15:02:53;14.90;99.90
50556;DHT22;36508;52.512;13.450;2023-03-14T15:05:22;14.90;99.90
50556;DHT22;36508;52.512;13.450;2023-03-14T15:07:49;14.90;99.90
50556;DHT22;36508;52.512;13.450;2023-03-14T15:10:17;14.90;99.90
50556;DHT22;36508;52.512;13.450;2023-03-14T15:12:43;14.80;99.90
50556;DHT22;36508;52.512;13.450;2023-03-14T15:15:10;14.80;99.90
50556;DHT22;36508;52.512;13.450;2023-03-14T15:17:36;14.70;99.90
50556;DHT22;36508;52.512;13.450;2023-03-14T15:20:03;14.50;99.90
50556;DHT22;36508;52.512;13.450;2023-03-14T15:22:30;14.30;99.90
50556;DHT22;36508;52.512;13.450;2023-03-14T15:24:56;14.10;99.90
50556;DHT22;36508;52.512;13.450;2023-03-14T15:27:21;12.30;99.90
50556;DHT22;36508;52.512;13.450;2023-03-14T15:29:47;10.60;99.90
50556;DHT22;36508;52.512;13.450;2023-03-14T15:32:15;9.40;99.90
50556;DHT22;36508;52.512;13.450;2023-03-14T15:34:42;8.70;99.90
50556;DHT22;36508;52.512;13.450;2023-03-14T15:37:12;8.30;99.90
50556;DHT22;36508;52.512;13.450;2023-03-14T15:39:38;8.00;99.90
50556;DHT22;36508;52.512;13.450;2023-03-14T15:42:04;7.70;99.90
50556;DHT22;36508;52.512;13.450;2023-03-14T15:44:29;7.70;99.90
50556;DHT22;36508;52.512;13.450;2023-03-14T15:46:55;7.50;99.90
50556;DHT22;36508;52.512;13.450;2023-03-14T15:49:21;7.30;99.90
50556;DHT22;36508;52.512;13.450;2023-03-14T15:51:46;7.20;99.90
50556;DHT22;36508;52.512;13.450;2023-03-14T15:54:12;6.90;99.90
50556;DHT22;36508;52.512;13.450;2023-03-14T15:56:41;6.80;99.90
50556;DHT22;36508;52.512;13.450;2023-03-14T15:59:06;6.60;99.90
50556;DHT22;36508;52.512;13.450;2023-03-14T16:01:32;6.20;99.90
50556;DHT22;36508;52.512;13.450;2023-03-14T16:03:57;5.70;99.90
50556;DHT22;36508;52.512;13.450;2023-03-14T16:06:23;5.40;99.90
50556;DHT22;36508;52.512;13.450;2023-03-14T16:08:49;5.30;99.90
50556;DHT22;36508;52.512;13.450;2023-03-14T16:11:15;5.10;99.90
50556;DHT22;36508;52.512;13.450;2023-03-14T16:13:43;4.80;99.90
50556;DHT22;36508;52.512;13.450;2023-03-14T16:16:09;4.60;99.90
50556;DHT22;36508;52.512;13.450;2023-03-14T16:18:36;4.30;99.90
50556;DHT22;36508;52.512;13.450;2023-03-14T16:21:11;3.90;99.90
50556;DHT22;36508;52.512;13.450;2023-03-14T16:23:37;3.90;99.90